sensor_id;sensor_type;location;lat;lon;timestamp;P1;durP1;ratioP1;P2;durP2;ratioP2
32108;SDS011;18624;50.042;8.436;2022-09-09T00:09:27;4.07;;;2.85;;
32108;SDS011;18624;50.042;8.436;2022-09-09T00:12:00;2.25;;;1.38;;
32108;SDS011;18624;50.042;8.436;2022-09-09T00:20:20;3.40;;;1.55;;
32108;SDS011;18624;50.042;8.436;2022-09-09T00:22:57;2.50;;;1.33;;
32108;SDS011;18624;50.042;8.436;2022-09-09T00:28:28;2.10;;;1.40;;
32108;SDS011;18624;50.042;8.436;2022-09-09T00:31:10;2.13;;;1.88;;
32108;SDS011;18624;50.042;8.436;2022-09-09T00:33:39;2.92;;;1.58;;
32108;SDS011;18624;50.042;8.436;2022-09-09T00:36:09;3.60;;;1.95;;
32108;SDS011;18624;50.042;8.436;2022-09-09T00:38:42;3.72;;;2.08;;
32108;SDS011;18624;50.042;8.436;2022-09-09T00:41:26;3.42;;;1.65;;
32108;SDS011;18624;50.042;8.436;2022-09-09T00:47:04;2.33;;;1.50;;
32108;SDS011;18624;50.042;8.436;2022-09-09T00:52:32;2.70;;;1.58;;
32108;SDS011;18624;50.042;8.436;2022-09-09T00:55:07;3.05;;;1.83;;
32108;SDS011;18624;50.042;8.436;2022-09-09T00:57:45;3.67;;;2.08;;
32108;SDS011;18624;50.042;8.436;2022-09-09T01:02:56;2.92;;;1.63;;
32108;SDS011;18624;50.042;8.436;2022-09-09T01:05:41;1.88;;;1.58;;
32108;SDS011;18624;50.042;8.436;2022-09-09T01:11:15;2.58;;;1.70;;
32108;SDS011;18624;50.042;8.436;2022-09-09T01:13:49;4.07;;;1.90;;
32108;SDS011;18624;50.042;8.436;2022-09-09T01:16:26;2.85;;;1.70;;
32108;SDS011;18624;50.042;8.436;2022-09-09T01:18:55;1.98;;;1.55;;
32108;SDS011;18624;50.042;8.436;2022-09-09T01:26:42;3.63;;;1.77;;
32108;SDS011;18624;50.042;8.436;2022-09-09T01:29:19;3.15;;;1.30;;
32108;SDS011;18624;50.042;8.436;2022-09-09T01:31:55;1.73;;;1.60;;
32108;SDS011;18624;50.042;8.436;2022-09-09T01:34:24;1.13;;;1.02;;
32108;SDS011;18624;50.042;8.436;2022-09-09T01:36:59;1.73;;;1.30;;
32108;SDS011;18624;50.042;8.436;2022-09-09T01:39:31;3.50;;;1.77;;
32108;SDS011;18624;50.042;8.436;2022-09-09T01:42:05;5.13;;;2.50;;
32108;SDS011;18624;50.042;8.436;2022-09-09T01:44:34;1.52;;;1.42;;
32108;SDS011;18624;50.042;8.436;2022-09-09T01:47:03;2.40;;;1.85;;
32108;SDS011;18624;50.042;8.436;2022-09-09T01:49:30;2.28;;;1.45;;
32108;SDS011;18624;50.042;8.436;2022-09-09T01:52:04;3.30;;;2.25;;
32108;SDS011;18624;50.042;8.436;2022-09-09T01:54:34;2.20;;;1.58;;
32108;SDS011;18624;50.042;8.436;2022-09-09T01:57:11;1.63;;;1.52;;
32108;SDS011;18624;50.042;8.436;2022-09-09T02:02:30;1.60;;;1.38;;
32108;SDS011;18624;50.042;8.436;2022-09-09T02:08:07;6.07;;;2.20;;
32108;SDS011;18624;50.042;8.436;2022-09-09T02:11:08;1.80;;;1.30;;
32108;SDS011;18624;50.042;8.436;2022-09-09T02:13:45;3.42;;;1.40;;
32108;SDS011;18624;50.042;8.436;2022-09-09T02:21:51;3.80;;;2.13;;
32108;SDS011;18624;50.042;8.436;2022-09-09T02:24:21;3.13;;;1.67;;
32108;SDS011;18624;50.042;8.436;2022-09-09T02:26:58;2.85;;;2.15;;
32108;SDS011;18624;50.042;8.436;2022-09-09T02:29:30;2.22;;;1.50;;
32108;SDS011;18624;50.042;8.436;2022-09-09T02:34:36;2.35;;;1.83;;
32108;SDS011;18624;50.042;8.436;2022-09-09T02:37:08;3.08;;;1.92;;
32108;SDS011;18624;50.042;8.436;2022-09-09T02:39:38;1.67;;;1.27;;
32108;SDS011;18624;50.042;8.436;2022-09-09T02:42:08;2.35;;;1.55;;
32108;SDS011;18624;50.042;8.436;2022-09-09T02:44:35;3.55;;;1.98;;
32108;SDS011;18624;50.042;8.436;2022-09-09T02:55:47;3.13;;;1.75;;
32108;SDS011;18624;50.042;8.436;2022-09-09T02:58:19;3.58;;;1.80;;
32108;SDS011;18624;50.042;8.436;2022-09-09T03:01:00;6.95;;;1.95;;
32108;SDS011;18624;50.042;8.436;2022-09-09T03:03:29;2.22;;;1.20;;
32108;SDS011;18624;50.042;8.436;2022-09-09T03:05:59;2.10;;;1.70;;
32108;SDS011;18624;50.042;8.436;2022-09-09T03:08:26;2.88;;;1.80;;
32108;SDS011;18624;50.042;8.436;2022-09-09T03:10:55;3.83;;;1.52;;
32108;SDS011;18624;50.042;8.436;2022-09-09T03:13:27;8.35;;;2.00;;
32108;SDS011;18624;50.042;8.436;2022-09-09T03:15:53;2.20;;;1.67;;
32108;SDS011;18624;50.042;8.436;2022-09-09T03:18:20;4.35;;;1.90;;
32108;SDS011;18624;50.042;8.436;2022-09-09T03:20:49;2.47;;;2.17;;
32108;SDS011;18624;50.042;8.436;2022-09-09T03:23:18;1.73;;;1.48;;
32108;SDS011;18624;50.042;8.436;2022-09-09T03:25:48;2.45;;;1.55;;
32108;SDS011;18624;50.042;8.436;2022-09-09T03:28:19;2.97;;;2.13;;
32108;SDS011;18624;50.042;8.436;2022-09-09T03:30:47;2.75;;;1.50;;
32108;SDS011;18624;50.042;8.436;2022-09-09T03:33:14;3.75;;;1.90;;
32108;SDS011;18624;50.042;8.436;2022-09-09T03:35:45;4.10;;;1.63;;
32108;SDS011;18624;50.042;8.436;2022-09-09T03:38:14;4.63;;;1.95;;
32108;SDS011;18624;50.042;8.436;2022-09-09T03:40:48;2.67;;;1.83;;
32108;SDS011;18624;50.042;8.436;2022-09-09T03:43:22;2.28;;;1.58;;
32108;SDS011;18624;50.042;8.436;2022-09-09T03:45:50;2.50;;;1.75;;
32108;SDS011;18624;50.042;8.436;2022-09-09T03:48:17;2.45;;;1.63;;
32108;SDS011;18624;50.042;8.436;2022-09-09T03:50:45;2.17;;;1.50;;
32108;SDS011;18624;50.042;8.436;2022-09-09T03:53:13;3.65;;;1.92;;
32108;SDS011;18624;50.042;8.436;2022-09-09T03:55:51;2.42;;;1.77;;
32108;SDS011;18624;50.042;8.436;2022-09-09T03:58:22;3.15;;;1.90;;
32108;SDS011;18624;50.042;8.436;2022-09-09T04:00:56;1.88;;;1.73;;
32108;SDS011;18624;50.042;8.436;2022-09-09T04:03:26;1.60;;;1.50;;
32108;SDS011;18624;50.042;8.436;2022-09-09T04:05:54;3.03;;;1.63;;
32108;SDS011;18624;50.042;8.436;2022-09-09T04:08:24;2.55;;;1.80;;
32108;SDS011;18624;50.042;8.436;2022-09-09T04:10:52;2.85;;;1.77;;
32108;SDS011;18624;50.042;8.436;2022-09-09T04:13:22;3.47;;;1.55;;
32108;SDS011;18624;50.042;8.436;2022-09-09T04:16:09;2.38;;;2.08;;
32108;SDS011;18624;50.042;8.436;2022-09-09T04:18:37;2.40;;;1.98;;
32108;SDS011;18624;50.042;8.436;2022-09-09T04:21:04;3.88;;;2.00;;
32108;SDS011;18624;50.042;8.436;2022-09-09T04:23:33;2.58;;;1.58;;
32108;SDS011;18624;50.042;8.436;2022-09-09T04:26:01;2.67;;;1.80;;
32108;SDS011;18624;50.042;8.436;2022-09-09T04:28:32;3.15;;;1.92;;
32108;SDS011;18624;50.042;8.436;2022-09-09T04:31:03;2.97;;;1.77;;
32108;SDS011;18624;50.042;8.436;2022-09-09T04:33:32;1.63;;;1.52;;
32108;SDS011;18624;50.042;8.436;2022-09-09T04:36:04;2.28;;;1.80;;
32108;SDS011;18624;50.042;8.436;2022-09-09T04:38:31;2.28;;;1.60;;
32108;SDS011;18624;50.042;8.436;2022-09-09T04:40:58;3.30;;;1.95;;
32108;SDS011;18624;50.042;8.436;2022-09-09T04:43:25;3.92;;;2.67;;
32108;SDS011;18624;50.042;8.436;2022-09-09T04:45:52;5.15;;;2.08;;
32108;SDS011;18624;50.042;8.436;2022-09-09T04:48:22;2.05;;;1.88;;
32108;SDS011;18624;50.042;8.436;2022-09-09T04:50:54;3.75;;;1.83;;
32108;SDS011;18624;50.042;8.436;2022-09-09T04:53:22;9.63;;;2.55;;
32108;SDS011;18624;50.042;8.436;2022-09-09T04:55:49;6.22;;;2.17;;
32108;SDS011;18624;50.042;8.436;2022-09-09T04:58:15;5.38;;;2.50;;
32108;SDS011;18624;50.042;8.436;2022-09-09T05:00:42;3.47;;;2.35;;
32108;SDS011;18624;50.042;8.436;2022-09-09T05:03:09;6.00;;;2.50;;
32108;SDS011;18624;50.042;8.436;2022-09-09T05:05:36;4.78;;;2.20;;
32108;SDS011;18624;50.042;8.436;2022-09-09T05:08:03;6.32;;;2.28;;
32108;SDS011;18624;50.042;8.436;2022-09-09T05:10:31;3.55;;;2.15;;
32108;SDS011;18624;50.042;8.436;2022-09-09T05:12:58;2.38;;;2.08;;
32108;SDS011;18624;50.042;8.436;2022-09-09T05:15:28;3.75;;;2.35;;
32108;SDS011;18624;50.042;8.436;2022-09-09T05:17:58;4.88;;;2.10;;
32108;SDS011;18624;50.042;8.436;2022-09-09T05:20:28;2.50;;;1.80;;
32108;SDS011;18624;50.042;8.436;2022-09-09T05:22:56;3.58;;;2.17;;
32108;SDS011;18624;50.042;8.436;2022-09-09T05:25:26;4.90;;;3.28;;
32108;SDS011;18624;50.042;8.436;2022-09-09T05:27:54;2.60;;;2.20;;
32108;SDS011;18624;50.042;8.436;2022-09-09T05:30:21;4.15;;;2.35;;
32108;SDS011;18624;50.042;8.436;2022-09-09T05:32:50;3.65;;;2.13;;
32108;SDS011;18624;50.042;8.436;2022-09-09T05:35:17;3.55;;;2.67;;
32108;SDS011;18624;50.042;8.436;2022-09-09T05:37:45;3.53;;;2.03;;
32108;SDS011;18624;50.042;8.436;2022-09-09T05:40:12;3.28;;;2.70;;
32108;SDS011;18624;50.042;8.436;2022-09-09T05:42:39;4.57;;;2.40;;
32108;SDS011;18624;50.042;8.436;2022-09-09T05:45:06;4.65;;;2.35;;
32108;SDS011;18624;50.042;8.436;2022-09-09T05:47:35;5.10;;;2.10;;
32108;SDS011;18624;50.042;8.436;2022-09-09T05:50:05;2.85;;;2.60;;
32108;SDS011;18624;50.042;8.436;2022-09-09T05:52:31;5.63;;;2.38;;
32108;SDS011;18624;50.042;8.436;2022-09-09T05:54:58;4.25;;;2.00;;
32108;SDS011;18624;50.042;8.436;2022-09-09T05:57:25;4.28;;;2.30;;
32108;SDS011;18624;50.042;8.436;2022-09-09T05:59:52;5.25;;;2.53;;
32108;SDS011;18624;50.042;8.436;2022-09-09T06:02:19;4.30;;;2.63;;
32108;SDS011;18624;50.042;8.436;2022-09-09T06:04:46;6.05;;;2.72;;
32108;SDS011;18624;50.042;8.436;2022-09-09T06:07:12;5.32;;;2.72;;
32108;SDS011;18624;50.042;8.436;2022-09-09T06:09:40;4.97;;;2.85;;
32108;SDS011;18624;50.042;8.436;2022-09-09T06:12:07;3.75;;;2.40;;
32108;SDS011;18624;50.042;8.436;2022-09-09T06:14:35;3.13;;;2.25;;
32108;SDS011;18624;50.042;8.436;2022-09-09T06:17:03;7.70;;;2.15;;
32108;SDS011;18624;50.042;8.436;2022-09-09T06:19:29;4.90;;;2.88;;
32108;SDS011;18624;50.042;8.436;2022-09-09T06:21:57;3.83;;;2.28;;
32108;SDS011;18624;50.042;8.436;2022-09-09T06:24:26;5.60;;;2.53;;
32108;SDS011;18624;50.042;8.436;2022-09-09T06:26:52;4.50;;;2.75;;
32108;SDS011;18624;50.042;8.436;2022-09-09T06:29:25;5.35;;;2.70;;
32108;SDS011;18624;50.042;8.436;2022-09-09T06:31:52;6.25;;;2.83;;
32108;SDS011;18624;50.042;8.436;2022-09-09T06:34:20;3.05;;;2.67;;
32108;SDS011;18624;50.042;8.436;2022-09-09T06:36:51;4.63;;;2.40;;
32108;SDS011;18624;50.042;8.436;2022-09-09T06:39:18;6.00;;;2.60;;
32108;SDS011;18624;50.042;8.436;2022-09-09T06:41:45;4.65;;;2.83;;
32108;SDS011;18624;50.042;8.436;2022-09-09T06:44:30;3.92;;;2.80;;
32108;SDS011;18624;50.042;8.436;2022-09-09T06:47:01;3.20;;;2.50;;
32108;SDS011;18624;50.042;8.436;2022-09-09T06:49:28;5.68;;;2.53;;
32108;SDS011;18624;50.042;8.436;2022-09-09T06:51:55;3.53;;;2.50;;
32108;SDS011;18624;50.042;8.436;2022-09-09T06:54:21;4.57;;;2.30;;
32108;SDS011;18624;50.042;8.436;2022-09-09T06:56:50;4.05;;;1.95;;
32108;SDS011;18624;50.042;8.436;2022-09-09T06:59:22;4.60;;;1.95;;
32108;SDS011;18624;50.042;8.436;2022-09-09T07:01:50;5.47;;;2.50;;
32108;SDS011;18624;50.042;8.436;2022-09-09T07:04:21;3.90;;;1.88;;
32108;SDS011;18624;50.042;8.436;2022-09-09T07:06:48;3.90;;;2.10;;
32108;SDS011;18624;50.042;8.436;2022-09-09T07:09:21;6.22;;;2.88;;
32108;SDS011;18624;50.042;8.436;2022-09-09T07:11:51;3.53;;;1.70;;
32108;SDS011;18624;50.042;8.436;2022-09-09T07:14:20;5.40;;;2.15;;
32108;SDS011;18624;50.042;8.436;2022-09-09T07:16:54;3.28;;;2.25;;
32108;SDS011;18624;50.042;8.436;2022-09-09T07:19:25;2.45;;;1.60;;
32108;SDS011;18624;50.042;8.436;2022-09-09T07:21:53;2.83;;;2.30;;
32108;SDS011;18624;50.042;8.436;2022-09-09T07:24:22;3.60;;;2.00;;
32108;SDS011;18624;50.042;8.436;2022-09-09T07:26:48;5.63;;;2.03;;
32108;SDS011;18624;50.042;8.436;2022-09-09T07:29:15;5.13;;;2.38;;
32108;SDS011;18624;50.042;8.436;2022-09-09T07:31:46;2.55;;;1.60;;
32108;SDS011;18624;50.042;8.436;2022-09-09T07:34:18;7.40;;;2.03;;
32108;SDS011;18624;50.042;8.436;2022-09-09T07:36:45;3.60;;;2.00;;
32108;SDS011;18624;50.042;8.436;2022-09-09T07:39:13;4.47;;;1.83;;
32108;SDS011;18624;50.042;8.436;2022-09-09T07:41:45;7.90;;;2.63;;
32108;SDS011;18624;50.042;8.436;2022-09-09T07:44:16;5.78;;;1.83;;
32108;SDS011;18624;50.042;8.436;2022-09-09T07:46:47;1.95;;;1.67;;
32108;SDS011;18624;50.042;8.436;2022-09-09T07:49:19;4.00;;;2.22;;
32108;SDS011;18624;50.042;8.436;2022-09-09T07:51:55;3.65;;;2.10;;
32108;SDS011;18624;50.042;8.436;2022-09-09T07:54:21;3.95;;;1.80;;
32108;SDS011;18624;50.042;8.436;2022-09-09T07:56:51;4.13;;;2.15;;
32108;SDS011;18624;50.042;8.436;2022-09-09T07:59:21;3.60;;;2.03;;
32108;SDS011;18624;50.042;8.436;2022-09-09T08:01:51;3.53;;;2.60;;
32108;SDS011;18624;50.042;8.436;2022-09-09T08:04:25;8.35;;;2.47;;
32108;SDS011;18624;50.042;8.436;2022-09-09T08:06:54;3.13;;;2.22;;
32108;SDS011;18624;50.042;8.436;2022-09-09T08:09:24;7.45;;;3.25;;
32108;SDS011;18624;50.042;8.436;2022-09-09T08:12:09;6.07;;;2.75;;
32108;SDS011;18624;50.042;8.436;2022-09-09T08:14:37;3.38;;;2.63;;
32108;SDS011;18624;50.042;8.436;2022-09-09T08:17:04;5.57;;;2.85;;
32108;SDS011;18624;50.042;8.436;2022-09-09T08:19:31;5.35;;;3.15;;
32108;SDS011;18624;50.042;8.436;2022-09-09T08:22:05;9.88;;;3.22;;
32108;SDS011;18624;50.042;8.436;2022-09-09T08:24:34;2.85;;;2.45;;
32108;SDS011;18624;50.042;8.436;2022-09-09T08:27:00;4.60;;;2.65;;
32108;SDS011;18624;50.042;8.436;2022-09-09T08:29:27;8.75;;;3.20;;
32108;SDS011;18624;50.042;8.436;2022-09-09T08:31:56;5.32;;;2.45;;
32108;SDS011;18624;50.042;8.436;2022-09-09T08:34:25;6.55;;;2.55;;
32108;SDS011;18624;50.042;8.436;2022-09-09T08:36:54;4.72;;;2.67;;
32108;SDS011;18624;50.042;8.436;2022-09-09T08:39:27;4.43;;;2.72;;
32108;SDS011;18624;50.042;8.436;2022-09-09T08:44:49;3.90;;;2.50;;
32108;SDS011;18624;50.042;8.436;2022-09-09T08:47:45;10.63;;;3.55;;
32108;SDS011;18624;50.042;8.436;2022-09-09T08:55:49;7.47;;;2.58;;
32108;SDS011;18624;50.042;8.436;2022-09-09T08:58:27;4.95;;;2.40;;
32108;SDS011;18624;50.042;8.436;2022-09-09T09:03:47;5.63;;;2.35;;
32108;SDS011;18624;50.042;8.436;2022-09-09T09:09:11;5.85;;;2.55;;
32108;SDS011;18624;50.042;8.436;2022-09-09T09:11:44;5.07;;;3.17;;
32108;SDS011;18624;50.042;8.436;2022-09-09T09:14:23;6.85;;;2.95;;
32108;SDS011;18624;50.042;8.436;2022-09-09T09:16:59;4.82;;;1.98;;
32108;SDS011;18624;50.042;8.436;2022-09-09T09:19:28;9.77;;;2.47;;
32108;SDS011;18624;50.042;8.436;2022-09-09T09:27:35;6.18;;;2.45;;
32108;SDS011;18624;50.042;8.436;2022-09-09T09:30:14;5.97;;;2.35;;
32108;SDS011;18624;50.042;8.436;2022-09-09T09:33:06;4.60;;;1.70;;
32108;SDS011;18624;50.042;8.436;2022-09-09T09:35:43;4.93;;;2.13;;
32108;SDS011;18624;50.042;8.436;2022-09-09T09:38:24;5.22;;;2.47;;
32108;SDS011;18624;50.042;8.436;2022-09-09T09:41:13;5.30;;;2.22;;
32108;SDS011;18624;50.042;8.436;2022-09-09T09:43:41;4.03;;;2.17;;
32108;SDS011;18624;50.042;8.436;2022-09-09T09:46:22;12.52;;;3.47;;
32108;SDS011;18624;50.042;8.436;2022-09-09T09:48:56;7.63;;;2.90;;
32108;SDS011;18624;50.042;8.436;2022-09-09T09:51:28;5.15;;;2.55;;
32108;SDS011;18624;50.042;8.436;2022-09-09T09:56:44;6.90;;;2.70;;
32108;SDS011;18624;50.042;8.436;2022-09-09T10:02:19;6.22;;;2.10;;
32108;SDS011;18624;50.042;8.436;2022-09-09T10:08:08;6.78;;;2.78;;
32108;SDS011;18624;50.042;8.436;2022-09-09T10:16:06;4.57;;;2.15;;
32108;SDS011;18624;50.042;8.436;2022-09-09T10:24:46;8.70;;;2.85;;
32108;SDS011;18624;50.042;8.436;2022-09-09T10:27:43;4.35;;;2.05;;
32108;SDS011;18624;50.042;8.436;2022-09-09T10:36:16;3.80;;;1.85;;
32108;SDS011;18624;50.042;8.436;2022-09-09T10:39:03;4.32;;;2.20;;
32108;SDS011;18624;50.042;8.436;2022-09-09T10:41:35;2.92;;;1.60;;
32108;SDS011;18624;50.042;8.436;2022-09-09T10:44:17;8.50;;;3.70;;
32108;SDS011;18624;50.042;8.436;2022-09-09T10:46:58;7.30;;;2.55;;
32108;SDS011;18624;50.042;8.436;2022-09-09T10:52:31;5.28;;;2.10;;
32108;SDS011;18624;50.042;8.436;2022-09-09T10:55:15;4.38;;;2.25;;
32108;SDS011;18624;50.042;8.436;2022-09-09T10:57:50;4.50;;;1.80;;
32108;SDS011;18624;50.042;8.436;2022-09-09T11:03:02;5.38;;;1.70;;
32108;SDS011;18624;50.042;8.436;2022-09-09T11:05:40;4.90;;;2.05;;
32108;SDS011;18624;50.042;8.436;2022-09-09T11:08:17;4.10;;;1.70;;
32108;SDS011;18624;50.042;8.436;2022-09-09T11:10:53;2.88;;;1.60;;
32108;SDS011;18624;50.042;8.436;2022-09-09T11:13:26;3.88;;;2.08;;
32108;SDS011;18624;50.042;8.436;2022-09-09T11:15:59;3.30;;;1.83;;
32108;SDS011;18624;50.042;8.436;2022-09-09T11:18:31;3.45;;;1.50;;
32108;SDS011;18624;50.042;8.436;2022-09-09T11:21:12;2.83;;;1.50;;
32108;SDS011;18624;50.042;8.436;2022-09-09T11:23:49;4.95;;;2.88;;
32108;SDS011;18624;50.042;8.436;2022-09-09T11:26:27;3.05;;;1.90;;
32108;SDS011;18624;50.042;8.436;2022-09-09T11:29:17;2.83;;;1.90;;
32108;SDS011;18624;50.042;8.436;2022-09-09T11:32:04;3.28;;;1.88;;
32108;SDS011;18624;50.042;8.436;2022-09-09T11:40:28;3.53;;;2.00;;
32108;SDS011;18624;50.042;8.436;2022-09-09T11:43:03;3.33;;;1.77;;
32108;SDS011;18624;50.042;8.436;2022-09-09T11:45:35;4.07;;;1.58;;
32108;SDS011;18624;50.042;8.436;2022-09-09T11:48:03;5.72;;;2.45;;
32108;SDS011;18624;50.042;8.436;2022-09-09T11:50:33;2.00;;;1.52;;
32108;SDS011;18624;50.042;8.436;2022-09-09T11:55:39;3.05;;;1.80;;
32108;SDS011;18624;50.042;8.436;2022-09-09T12:03:04;3.70;;;1.73;;
32108;SDS011;18624;50.042;8.436;2022-09-09T12:05:41;3.78;;;1.50;;
32108;SDS011;18624;50.042;8.436;2022-09-09T12:08:10;4.63;;;2.30;;
32108;SDS011;18624;50.042;8.436;2022-09-09T12:10:52;3.35;;;2.10;;
32108;SDS011;18624;50.042;8.436;2022-09-09T12:13:22;4.40;;;1.70;;
32108;SDS011;18624;50.042;8.436;2022-09-09T12:15:57;3.10;;;1.45;;
32108;SDS011;18624;50.042;8.436;2022-09-09T12:18:26;3.85;;;2.03;;
32108;SDS011;18624;50.042;8.436;2022-09-09T12:23:51;6.70;;;2.40;;
32108;SDS011;18624;50.042;8.436;2022-09-09T12:26:30;6.82;;;3.08;;
32108;SDS011;18624;50.042;8.436;2022-09-09T12:31:57;6.13;;;2.60;;
32108;SDS011;18624;50.042;8.436;2022-09-09T12:34:47;7.38;;;2.35;;
32108;SDS011;18624;50.042;8.436;2022-09-09T12:39:58;4.13;;;1.55;;
32108;SDS011;18624;50.042;8.436;2022-09-09T12:42:26;6.63;;;2.15;;
32108;SDS011;18624;50.042;8.436;2022-09-09T12:44:57;5.63;;;2.20;;
32108;SDS011;18624;50.042;8.436;2022-09-09T12:49:56;5.20;;;2.22;;
32108;SDS011;18624;50.042;8.436;2022-09-09T12:52:31;4.50;;;2.75;;
32108;SDS011;18624;50.042;8.436;2022-09-09T12:55:02;5.32;;;2.08;;
32108;SDS011;18624;50.042;8.436;2022-09-09T12:57:33;4.05;;;1.80;;
32108;SDS011;18624;50.042;8.436;2022-09-09T13:00:07;4.55;;;1.85;;
32108;SDS011;18624;50.042;8.436;2022-09-09T13:02:47;5.53;;;1.88;;
32108;SDS011;18624;50.042;8.436;2022-09-09T13:05:31;5.20;;;2.00;;
32108;SDS011;18624;50.042;8.436;2022-09-09T13:08:02;5.27;;;2.13;;
32108;SDS011;18624;50.042;8.436;2022-09-09T13:10:30;4.60;;;1.83;;
32108;SDS011;18624;50.042;8.436;2022-09-09T13:13:15;2.72;;;1.92;;
32108;SDS011;18624;50.042;8.436;2022-09-09T13:16:04;1.70;;;1.10;;
32108;SDS011;18624;50.042;8.436;2022-09-09T13:18:35;4.43;;;1.30;;
32108;SDS011;18624;50.042;8.436;2022-09-09T13:21:05;2.92;;;1.17;;
32108;SDS011;18624;50.042;8.436;2022-09-09T13:23:33;2.55;;;1.13;;
32108;SDS011;18624;50.042;8.436;2022-09-09T13:26:05;2.63;;;1.33;;
32108;SDS011;18624;50.042;8.436;2022-09-09T13:28:47;5.93;;;2.13;;
32108;SDS011;18624;50.042;8.436;2022-09-09T13:31:21;4.07;;;1.20;;
32108;SDS011;18624;50.042;8.436;2022-09-09T13:33:55;2.92;;;1.40;;
32108;SDS011;18624;50.042;8.436;2022-09-09T13:36:29;4.72;;;1.83;;
32108;SDS011;18624;50.042;8.436;2022-09-09T13:38:58;2.72;;;1.13;;
32108;SDS011;18624;50.042;8.436;2022-09-09T13:41:36;2.10;;;1.20;;
32108;SDS011;18624;50.042;8.436;2022-09-09T13:44:14;1.40;;;0.98;;
32108;SDS011;18624;50.042;8.436;2022-09-09T13:47:05;1.40;;;1.17;;
32108;SDS011;18624;50.042;8.436;2022-09-09T13:49:43;2.60;;;1.30;;
32108;SDS011;18624;50.042;8.436;2022-09-09T13:52:10;2.40;;;1.20;;
32108;SDS011;18624;50.042;8.436;2022-09-09T13:54:40;1.20;;;1.00;;
32108;SDS011;18624;50.042;8.436;2022-09-09T13:57:15;4.30;;;1.38;;
32108;SDS011;18624;50.042;8.436;2022-09-09T13:59:47;2.13;;;0.93;;
32108;SDS011;18624;50.042;8.436;2022-09-09T14:02:30;3.38;;;1.90;;
32108;SDS011;18624;50.042;8.436;2022-09-09T14:04:57;1.27;;;1.10;;
32108;SDS011;18624;50.042;8.436;2022-09-09T14:07:23;1.67;;;1.20;;
32108;SDS011;18624;50.042;8.436;2022-09-09T14:09:51;2.70;;;1.33;;
32108;SDS011;18624;50.042;8.436;2022-09-09T14:12:18;2.53;;;1.30;;
32108;SDS011;18624;50.042;8.436;2022-09-09T14:14:45;4.25;;;1.80;;
32108;SDS011;18624;50.042;8.436;2022-09-09T14:17:11;2.13;;;1.38;;
32108;SDS011;18624;50.042;8.436;2022-09-09T14:19:38;7.22;;;1.85;;
32108;SDS011;18624;50.042;8.436;2022-09-09T14:22:04;4.32;;;1.85;;
32108;SDS011;18624;50.042;8.436;2022-09-09T14:24:30;3.05;;;1.48;;
32108;SDS011;18624;50.042;8.436;2022-09-09T14:26:57;3.95;;;1.52;;
32108;SDS011;18624;50.042;8.436;2022-09-09T14:29:23;2.60;;;1.42;;
32108;SDS011;18624;50.042;8.436;2022-09-09T14:31:51;2.67;;;2.13;;
32108;SDS011;18624;50.042;8.436;2022-09-09T14:34:17;2.60;;;1.30;;
32108;SDS011;18624;50.042;8.436;2022-09-09T14:36:44;1.52;;;1.35;;
32108;SDS011;18624;50.042;8.436;2022-09-09T14:39:11;2.13;;;1.80;;
32108;SDS011;18624;50.042;8.436;2022-09-09T14:41:38;5.15;;;1.63;;
32108;SDS011;18624;50.042;8.436;2022-09-09T14:44:04;3.50;;;1.50;;
32108;SDS011;18624;50.042;8.436;2022-09-09T14:46:31;2.22;;;1.40;;
32108;SDS011;18624;50.042;8.436;2022-09-09T14:48:59;3.47;;;1.42;;
32108;SDS011;18624;50.042;8.436;2022-09-09T14:51:25;2.15;;;1.10;;
32108;SDS011;18624;50.042;8.436;2022-09-09T14:53:55;2.33;;;1.40;;
32108;SDS011;18624;50.042;8.436;2022-09-09T14:56:27;2.35;;;1.10;;
32108;SDS011;18624;50.042;8.436;2022-09-09T14:58:56;3.38;;;2.17;;
32108;SDS011;18624;50.042;8.436;2022-09-09T15:01:24;6.40;;;2.35;;
32108;SDS011;18624;50.042;8.436;2022-09-09T15:03:55;3.67;;;1.60;;
32108;SDS011;18624;50.042;8.436;2022-09-09T15:06:27;3.00;;;1.00;;
32108;SDS011;18624;50.042;8.436;2022-09-09T15:08:59;2.35;;;1.63;;
32108;SDS011;18624;50.042;8.436;2022-09-09T15:11:27;3.53;;;1.67;;
32108;SDS011;18624;50.042;8.436;2022-09-09T15:13:54;3.20;;;1.50;;
32108;SDS011;18624;50.042;8.436;2022-09-09T15:16:23;6.57;;;1.60;;
32108;SDS011;18624;50.042;8.436;2022-09-09T15:18:52;2.50;;;1.15;;
32108;SDS011;18624;50.042;8.436;2022-09-09T15:21:22;1.60;;;0.93;;
32108;SDS011;18624;50.042;8.436;2022-09-09T15:23:50;3.35;;;1.30;;
32108;SDS011;18624;50.042;8.436;2022-09-09T15:26:17;3.20;;;1.40;;
32108;SDS011;18624;50.042;8.436;2022-09-09T15:28:45;3.47;;;1.60;;
32108;SDS011;18624;50.042;8.436;2022-09-09T15:31:14;5.60;;;2.25;;
32108;SDS011;18624;50.042;8.436;2022-09-09T15:33:52;2.83;;;1.58;;
32108;SDS011;18624;50.042;8.436;2022-09-09T15:36:30;2.58;;;1.42;;
32108;SDS011;18624;50.042;8.436;2022-09-09T15:38:58;2.85;;;1.50;;
32108;SDS011;18624;50.042;8.436;2022-09-09T15:41:26;4.30;;;1.80;;
32108;SDS011;18624;50.042;8.436;2022-09-09T15:43:54;3.13;;;1.40;;
32108;SDS011;18624;50.042;8.436;2022-09-09T15:46:35;3.30;;;1.33;;
32108;SDS011;18624;50.042;8.436;2022-09-09T15:49:05;5.72;;;1.67;;
32108;SDS011;18624;50.042;8.436;2022-09-09T15:51:46;2.17;;;1.33;;
32108;SDS011;18624;50.042;8.436;2022-09-09T15:54:17;3.10;;;1.48;;
32108;SDS011;18624;50.042;8.436;2022-09-09T15:56:46;1.75;;;0.98;;
32108;SDS011;18624;50.042;8.436;2022-09-09T15:59:16;2.53;;;1.20;;
32108;SDS011;18624;50.042;8.436;2022-09-09T16:01:42;4.80;;;1.30;;
32108;SDS011;18624;50.042;8.436;2022-09-09T16:04:10;2.63;;;1.38;;
32108;SDS011;18624;50.042;8.436;2022-09-09T16:06:36;2.00;;;1.35;;
32108;SDS011;18624;50.042;8.436;2022-09-09T16:09:04;2.70;;;1.30;;
32108;SDS011;18624;50.042;8.436;2022-09-09T16:11:36;2.88;;;1.83;;
32108;SDS011;18624;50.042;8.436;2022-09-09T16:14:04;1.60;;;1.02;;
32108;SDS011;18624;50.042;8.436;2022-09-09T16:16:32;0.98;;;0.88;;
32108;SDS011;18624;50.042;8.436;2022-09-09T16:19:08;4.20;;;1.70;;
32108;SDS011;18624;50.042;8.436;2022-09-09T16:21:37;2.75;;;1.40;;
32108;SDS011;18624;50.042;8.436;2022-09-09T16:24:06;2.22;;;1.52;;
32108;SDS011;18624;50.042;8.436;2022-09-09T16:26:36;4.13;;;1.58;;
32108;SDS011;18624;50.042;8.436;2022-09-09T16:29:04;2.65;;;1.73;;
32108;SDS011;18624;50.042;8.436;2022-09-09T16:31:31;1.90;;;1.20;;
32108;SDS011;18624;50.042;8.436;2022-09-09T16:33:58;2.03;;;0.90;;
32108;SDS011;18624;50.042;8.436;2022-09-09T16:36:27;2.63;;;1.33;;
32108;SDS011;18624;50.042;8.436;2022-09-09T16:38:56;2.63;;;1.45;;
32108;SDS011;18624;50.042;8.436;2022-09-09T16:41:25;1.52;;;0.95;;
32108;SDS011;18624;50.042;8.436;2022-09-09T16:43:54;2.20;;;1.02;;
32108;SDS011;18624;50.042;8.436;2022-09-09T16:46:21;2.75;;;1.13;;
32108;SDS011;18624;50.042;8.436;2022-09-09T16:48:50;3.00;;;1.50;;
32108;SDS011;18624;50.042;8.436;2022-09-09T16:51:21;1.48;;;1.08;;
32108;SDS011;18624;50.042;8.436;2022-09-09T16:53:50;2.58;;;1.67;;
32108;SDS011;18624;50.042;8.436;2022-09-09T16:56:19;1.42;;;1.02;;
32108;SDS011;18624;50.042;8.436;2022-09-09T16:58:57;2.15;;;1.38;;
32108;SDS011;18624;50.042;8.436;2022-09-09T17:01:25;2.38;;;1.13;;
32108;SDS011;18624;50.042;8.436;2022-09-09T17:03:58;1.25;;;0.90;;
32108;SDS011;18624;50.042;8.436;2022-09-09T17:06:27;2.38;;;1.63;;
32108;SDS011;18624;50.042;8.436;2022-09-09T17:08:57;1.70;;;1.15;;
32108;SDS011;18624;50.042;8.436;2022-09-09T17:11:25;2.55;;;1.90;;
32108;SDS011;18624;50.042;8.436;2022-09-09T17:13:51;3.03;;;1.40;;
32108;SDS011;18624;50.042;8.436;2022-09-09T17:16:20;3.05;;;1.42;;
32108;SDS011;18624;50.042;8.436;2022-09-09T17:18:49;3.72;;;1.50;;
32108;SDS011;18624;50.042;8.436;2022-09-09T17:21:17;1.60;;;1.50;;
32108;SDS011;18624;50.042;8.436;2022-09-09T17:23:45;1.45;;;1.02;;
32108;SDS011;18624;50.042;8.436;2022-09-09T17:26:13;2.13;;;1.30;;